sensor_id;sensor_type;location;lat;lon;timestamp;P1;durP1;ratioP1;P2;durP2;ratioP2
11924;SDS011;6022;48.768;18.608;2023-09-07T00:00:16;0.00;;;0.00;;
11924;SDS011;6022;48.768;18.608;2023-09-07T00:02:43;0.00;;;0.00;;
11924;SDS011;6022;48.768;18.608;2023-09-07T00:05:10;0.00;;;0.00;;
11924;SDS011;6022;48.768;18.608;2023-09-07T00:07:37;0.33;;;0.20;;
11924;SDS011;6022;48.768;18.608;2023-09-07T00:10:05;0.00;;;0.00;;
11924;SDS011;6022;48.768;18.608;2023-09-07T00:12:33;0.10;;;0.10;;
11924;SDS011;6022;48.768;18.608;2023-09-07T00:15:00;1.87;;;0.20;;
11924;SDS011;6022;48.768;18.608;2023-09-07T00:17:27;0.00;;;0.00;;
11924;SDS011;6022;48.768;18.608;2023-09-07T00:19:54;0.10;;;0.10;;
11924;SDS011;6022;48.768;18.608;2023-09-07T00:22:23;0.10;;;0.10;;
11924;SDS011;6022;48.768;18.608;2023-09-07T00:24:52;0.00;;;0.00;;
11924;SDS011;6022;48.768;18.608;2023-09-07T00:27:19;0.53;;;0.20;;
11924;SDS011;6022;48.768;18.608;2023-09-07T00:29:46;0.00;;;0.00;;
11924;SDS011;6022;48.768;18.608;2023-09-07T00:32:13;1.03;;;0.60;;
11924;SDS011;6022;48.768;18.608;2023-09-07T00:34:40;0.20;;;0.13;;
11924;SDS011;6022;48.768;18.608;2023-09-07T00:37:07;0.27;;;0.23;;
11924;SDS011;6022;48.768;18.608;2023-09-07T00:39:35;0.00;;;0.00;;
11924;SDS011;6022;48.768;18.608;2023-09-07T00:42:02;0.10;;;0.10;;
11924;SDS011;6022;48.768;18.608;2023-09-07T00:44:29;0.20;;;0.20;;
11924;SDS011;6022;48.768;18.608;2023-09-07T00:46:57;0.10;;;0.10;;
11924;SDS011;6022;48.768;18.608;2023-09-07T00:49:24;0.00;;;0.00;;
11924;SDS011;6022;48.768;18.608;2023-09-07T00:51:52;0.23;;;0.23;;
11924;SDS011;6022;48.768;18.608;2023-09-07T00:54:19;0.10;;;0.10;;
11924;SDS011;6022;48.768;18.608;2023-09-07T00:56:46;0.30;;;0.30;;
11924;SDS011;6022;48.768;18.608;2023-09-07T00:59:14;0.00;;;0.00;;
11924;SDS011;6022;48.768;18.608;2023-09-07T01:01:41;0.00;;;0.00;;
11924;SDS011;6022;48.768;18.608;2023-09-07T01:04:09;0.17;;;0.03;;
11924;SDS011;6022;48.768;18.608;2023-09-07T01:06:51;0.10;;;0.10;;
11924;SDS011;6022;48.768;18.608;2023-09-07T01:09:28;0.00;;;0.00;;
11924;SDS011;6022;48.768;18.608;2023-09-07T01:11:58;0.00;;;0.00;;
11924;SDS011;6022;48.768;18.608;2023-09-07T01:14:25;0.10;;;0.10;;
11924;SDS011;6022;48.768;18.608;2023-09-07T01:16:52;0.20;;;0.20;;
11924;SDS011;6022;48.768;18.608;2023-09-07T01:19:20;0.00;;;0.00;;
11924;SDS011;6022;48.768;18.608;2023-09-07T01:21:47;0.10;;;0.10;;
11924;SDS011;6022;48.768;18.608;2023-09-07T01:24:15;0.00;;;0.00;;
11924;SDS011;6022;48.768;18.608;2023-09-07T01:26:43;0.00;;;0.00;;
11924;SDS011;6022;48.768;18.608;2023-09-07T01:29:15;0.10;;;0.10;;
11924;SDS011;6022;48.768;18.608;2023-09-07T01:31:43;1.10;;;0.33;;
11924;SDS011;6022;48.768;18.608;2023-09-07T01:34:10;0.10;;;0.10;;
11924;SDS011;6022;48.768;18.608;2023-09-07T01:36:38;0.43;;;0.40;;
11924;SDS011;6022;48.768;18.608;2023-09-07T01:39:05;0.00;;;0.00;;
11924;SDS011;6022;48.768;18.608;2023-09-07T01:41:35;0.03;;;0.03;;
11924;SDS011;6022;48.768;18.608;2023-09-07T01:44:02;0.00;;;0.00;;
11924;SDS011;6022;48.768;18.608;2023-09-07T01:46:29;0.10;;;0.10;;
11924;SDS011;6022;48.768;18.608;2023-09-07T01:48:56;0.00;;;0.00;;
11924;SDS011;6022;48.768;18.608;2023-09-07T01:51:24;0.17;;;0.10;;
11924;SDS011;6022;48.768;18.608;2023-09-07T01:53:54;0.00;;;0.00;;
11924;SDS011;6022;48.768;18.608;2023-09-07T01:56:21;0.00;;;0.00;;
11924;SDS011;6022;48.768;18.608;2023-09-07T01:58:48;0.13;;;0.13;;
11924;SDS011;6022;48.768;18.608;2023-09-07T02:01:26;0.23;;;0.23;;
11924;SDS011;6022;48.768;18.608;2023-09-07T02:03:57;0.00;;;0.00;;
11924;SDS011;6022;48.768;18.608;2023-09-07T02:06:24;0.00;;;0.00;;
11924;SDS011;6022;48.768;18.608;2023-09-07T02:08:51;0.10;;;0.10;;
11924;SDS011;6022;48.768;18.608;2023-09-07T02:11:18;0.30;;;0.30;;
11924;SDS011;6022;48.768;18.608;2023-09-07T02:13:46;0.07;;;0.07;;
11924;SDS011;6022;48.768;18.608;2023-09-07T02:16:14;0.30;;;0.30;;
11924;SDS011;6022;48.768;18.608;2023-09-07T02:18:42;0.10;;;0.10;;
11924;SDS011;6022;48.768;18.608;2023-09-07T02:21:12;1.53;;;0.37;;
11924;SDS011;6022;48.768;18.608;2023-09-07T02:23:39;0.20;;;0.20;;
11924;SDS011;6022;48.768;18.608;2023-09-07T02:26:07;0.00;;;0.00;;
11924;SDS011;6022;48.768;18.608;2023-09-07T02:28:34;0.00;;;0.00;;
11924;SDS011;6022;48.768;18.608;2023-09-07T02:31:04;0.00;;;0.00;;
11924;SDS011;6022;48.768;18.608;2023-09-07T02:33:33;0.00;;;0.00;;
11924;SDS011;6022;48.768;18.608;2023-09-07T02:36:01;0.00;;;0.00;;
11924;SDS011;6022;48.768;18.608;2023-09-07T02:38:29;0.10;;;0.10;;
11924;SDS011;6022;48.768;18.608;2023-09-07T02:40:57;0.00;;;0.00;;
11924;SDS011;6022;48.768;18.608;2023-09-07T02:43:24;0.20;;;0.20;;
11924;SDS011;6022;48.768;18.608;2023-09-07T02:45:51;0.00;;;0.00;;
11924;SDS011;6022;48.768;18.608;2023-09-07T02:48:18;0.10;;;0.10;;
11924;SDS011;6022;48.768;18.608;2023-09-07T02:50:47;0.00;;;0.00;;
11924;SDS011;6022;48.768;18.608;2023-09-07T02:53:17;0.10;;;0.10;;
11924;SDS011;6022;48.768;18.608;2023-09-07T02:55:44;0.00;;;0.00;;
11924;SDS011;6022;48.768;18.608;2023-09-07T02:58:11;0.00;;;0.00;;
11924;SDS011;6022;48.768;18.608;2023-09-07T03:00:42;0.40;;;0.40;;
11924;SDS011;6022;48.768;18.608;2023-09-07T03:03:14;0.10;;;0.03;;
11924;SDS011;6022;48.768;18.608;2023-09-07T03:05:42;0.00;;;0.00;;
11924;SDS011;6022;48.768;18.608;2023-09-07T03:08:10;0.20;;;0.20;;
11924;SDS011;6022;48.768;18.608;2023-09-07T03:10:37;0.00;;;0.00;;
11924;SDS011;6022;48.768;18.608;2023-09-07T03:13:06;0.00;;;0.00;;
11924;SDS011;6022;48.768;18.608;2023-09-07T03:15:34;0.17;;;0.17;;
11924;SDS011;6022;48.768;18.608;2023-09-07T03:18:02;0.10;;;0.10;;
11924;SDS011;6022;48.768;18.608;2023-09-07T03:20:29;0.10;;;0.10;;
11924;SDS011;6022;48.768;18.608;2023-09-07T03:23:00;0.00;;;0.00;;
11924;SDS011;6022;48.768;18.608;2023-09-07T03:25:28;0.00;;;0.00;;
11924;SDS011;6022;48.768;18.608;2023-09-07T03:27:56;1.17;;;0.20;;
11924;SDS011;6022;48.768;18.608;2023-09-07T03:30:23;0.50;;;0.20;;
11924;SDS011;6022;48.768;18.608;2023-09-07T03:32:50;0.00;;;0.00;;
11924;SDS011;6022;48.768;18.608;2023-09-07T03:35:17;0.20;;;0.20;;
11924;SDS011;6022;48.768;18.608;2023-09-07T03:37:44;0.20;;;0.20;;
11924;SDS011;6022;48.768;18.608;2023-09-07T03:40:11;2.07;;;0.27;;
11924;SDS011;6022;48.768;18.608;2023-09-07T03:42:39;0.27;;;0.27;;
11924;SDS011;6022;48.768;18.608;2023-09-07T03:45:06;0.40;;;0.40;;
11924;SDS011;6022;48.768;18.608;2023-09-07T03:47:36;0.00;;;0.00;;
11924;SDS011;6022;48.768;18.608;2023-09-07T03:50:05;0.10;;;0.10;;
11924;SDS011;6022;48.768;18.608;2023-09-07T03:52:32;0.10;;;0.10;;
11924;SDS011;6022;48.768;18.608;2023-09-07T03:55:00;0.27;;;0.13;;
11924;SDS011;6022;48.768;18.608;2023-09-07T03:57:27;0.20;;;0.20;;
11924;SDS011;6022;48.768;18.608;2023-09-07T03:59:55;0.00;;;0.00;;
11924;SDS011;6022;48.768;18.608;2023-09-07T04:02:23;0.00;;;0.00;;
11924;SDS011;6022;48.768;18.608;2023-09-07T04:04:52;0.43;;;0.10;;
11924;SDS011;6022;48.768;18.608;2023-09-07T04:07:24;0.00;;;0.00;;
11924;SDS011;6022;48.768;18.608;2023-09-07T04:09:52;0.47;;;0.47;;
11924;SDS011;6022;48.768;18.608;2023-09-07T04:12:19;0.10;;;0.10;;
11924;SDS011;6022;48.768;18.608;2023-09-07T04:14:46;0.20;;;0.20;;
11924;SDS011;6022;48.768;18.608;2023-09-07T04:17:13;0.10;;;0.10;;
11924;SDS011;6022;48.768;18.608;2023-09-07T04:19:40;0.00;;;0.00;;
11924;SDS011;6022;48.768;18.608;2023-09-07T04:22:07;0.00;;;0.00;;
11924;SDS011;6022;48.768;18.608;2023-09-07T04:24:35;0.00;;;0.00;;
11924;SDS011;6022;48.768;18.608;2023-09-07T04:27:03;0.00;;;0.00;;
11924;SDS011;6022;48.768;18.608;2023-09-07T04:29:39;0.00;;;0.00;;
11924;SDS011;6022;48.768;18.608;2023-09-07T04:32:06;0.30;;;0.30;;
11924;SDS011;6022;48.768;18.608;2023-09-07T04:34:34;0.00;;;0.00;;
11924;SDS011;6022;48.768;18.608;2023-09-07T04:37:01;0.00;;;0.00;;
11924;SDS011;6022;48.768;18.608;2023-09-07T04:39:28;0.00;;;0.00;;
11924;SDS011;6022;48.768;18.608;2023-09-07T04:41:58;1.33;;;0.37;;
11924;SDS011;6022;48.768;18.608;2023-09-07T04:44:26;0.40;;;0.20;;
11924;SDS011;6022;48.768;18.608;2023-09-07T04:46:55;1.13;;;0.20;;
11924;SDS011;6022;48.768;18.608;2023-09-07T04:49:23;0.40;;;0.30;;
11924;SDS011;6022;48.768;18.608;2023-09-07T04:51:54;0.27;;;0.27;;
11924;SDS011;6022;48.768;18.608;2023-09-07T04:54:21;0.00;;;0.00;;
11924;SDS011;6022;48.768;18.608;2023-09-07T04:56:48;0.00;;;0.00;;
11924;SDS011;6022;48.768;18.608;2023-09-07T04:59:15;0.77;;;0.53;;
11924;SDS011;6022;48.768;18.608;2023-09-07T05:01:42;0.23;;;0.23;;
11924;SDS011;6022;48.768;18.608;2023-09-07T05:04:10;0.07;;;0.07;;
11924;SDS011;6022;48.768;18.608;2023-09-07T05:06:37;0.10;;;0.10;;
11924;SDS011;6022;48.768;18.608;2023-09-07T05:09:06;0.10;;;0.10;;
11924;SDS011;6022;48.768;18.608;2023-09-07T05:11:33;0.10;;;0.10;;
11924;SDS011;6022;48.768;18.608;2023-09-07T05:14:02;0.10;;;0.10;;
11924;SDS011;6022;48.768;18.608;2023-09-07T05:16:29;0.53;;;0.50;;
11924;SDS011;6022;48.768;18.608;2023-09-07T05:18:56;0.50;;;0.50;;
11924;SDS011;6022;48.768;18.608;2023-09-07T05:21:23;0.00;;;0.00;;
11924;SDS011;6022;48.768;18.608;2023-09-07T05:23:50;0.43;;;0.20;;
11924;SDS011;6022;48.768;18.608;2023-09-07T05:26:21;0.27;;;0.27;;
11924;SDS011;6022;48.768;18.608;2023-09-07T05:28:51;0.40;;;0.40;;
11924;SDS011;6022;48.768;18.608;2023-09-07T05:31:18;0.00;;;0.00;;
11924;SDS011;6022;48.768;18.608;2023-09-07T05:33:46;0.10;;;0.10;;
11924;SDS011;6022;48.768;18.608;2023-09-07T05:36:13;0.23;;;0.23;;
11924;SDS011;6022;48.768;18.608;2023-09-07T05:38:41;0.30;;;0.30;;
11924;SDS011;6022;48.768;18.608;2023-09-07T05:41:08;0.30;;;0.30;;
11924;SDS011;6022;48.768;18.608;2023-09-07T05:43:35;0.30;;;0.30;;
11924;SDS011;6022;48.768;18.608;2023-09-07T05:46:03;0.30;;;0.20;;
11924;SDS011;6022;48.768;18.608;2023-09-07T05:48:30;0.23;;;0.23;;
11924;SDS011;6022;48.768;18.608;2023-09-07T05:50:57;0.27;;;0.27;;
11924;SDS011;6022;48.768;18.608;2023-09-07T05:53:25;0.60;;;0.60;;
11924;SDS011;6022;48.768;18.608;2023-09-07T05:55:52;1.07;;;0.37;;
11924;SDS011;6022;48.768;18.608;2023-09-07T05:58:19;0.43;;;0.20;;
11924;SDS011;6022;48.768;18.608;2023-09-07T06:00:46;0.43;;;0.43;;
11924;SDS011;6022;48.768;18.608;2023-09-07T06:03:14;0.33;;;0.33;;
11924;SDS011;6022;48.768;18.608;2023-09-07T06:05:41;0.33;;;0.33;;
11924;SDS011;6022;48.768;18.608;2023-09-07T06:08:08;0.90;;;0.90;;
11924;SDS011;6022;48.768;18.608;2023-09-07T06:10:35;0.57;;;0.57;;
11924;SDS011;6022;48.768;18.608;2023-09-07T06:13:03;0.97;;;0.77;;
11924;SDS011;6022;48.768;18.608;2023-09-07T06:15:33;1.53;;;1.00;;
11924;SDS011;6022;48.768;18.608;2023-09-07T06:18:03;0.47;;;0.47;;
11924;SDS011;6022;48.768;18.608;2023-09-07T06:20:30;0.53;;;0.53;;
11924;SDS011;6022;48.768;18.608;2023-09-07T06:22:57;1.13;;;1.13;;
11924;SDS011;6022;48.768;18.608;2023-09-07T06:25:24;0.87;;;0.80;;
11924;SDS011;6022;48.768;18.608;2023-09-07T06:27:53;0.40;;;0.40;;
11924;SDS011;6022;48.768;18.608;2023-09-07T06:30:21;0.60;;;0.60;;
11924;SDS011;6022;48.768;18.608;2023-09-07T06:32:48;0.40;;;0.40;;
11924;SDS011;6022;48.768;18.608;2023-09-07T06:35:17;0.43;;;0.40;;
11924;SDS011;6022;48.768;18.608;2023-09-07T06:37:45;0.63;;;0.40;;
11924;SDS011;6022;48.768;18.608;2023-09-07T06:40:15;0.53;;;0.53;;
11924;SDS011;6022;48.768;18.608;2023-09-07T06:42:45;0.33;;;0.33;;
11924;SDS011;6022;48.768;18.608;2023-09-07T06:45:12;0.67;;;0.67;;
11924;SDS011;6022;48.768;18.608;2023-09-07T06:47:39;0.83;;;0.83;;
11924;SDS011;6022;48.768;18.608;2023-09-07T06:50:06;0.30;;;0.30;;
11924;SDS011;6022;48.768;18.608;2023-09-07T06:52:34;1.13;;;0.70;;
11924;SDS011;6022;48.768;18.608;2023-09-07T06:55:01;0.60;;;0.60;;
11924;SDS011;6022;48.768;18.608;2023-09-07T06:57:31;1.33;;;0.70;;
11924;SDS011;6022;48.768;18.608;2023-09-07T07:00:00;0.70;;;0.70;;
11924;SDS011;6022;48.768;18.608;2023-09-07T07:02:31;0.63;;;0.60;;
11924;SDS011;6022;48.768;18.608;2023-09-07T07:04:59;0.83;;;0.67;;
11924;SDS011;6022;48.768;18.608;2023-09-07T07:07:29;1.03;;;0.90;;
11924;SDS011;6022;48.768;18.608;2023-09-07T07:09:57;1.03;;;0.40;;
11924;SDS011;6022;48.768;18.608;2023-09-07T07:12:24;2.13;;;1.13;;
11924;SDS011;6022;48.768;18.608;2023-09-07T07:14:54;0.93;;;0.70;;
11924;SDS011;6022;48.768;18.608;2023-09-07T07:17:21;0.63;;;0.63;;
11924;SDS011;6022;48.768;18.608;2023-09-07T07:19:49;1.03;;;0.80;;
11924;SDS011;6022;48.768;18.608;2023-09-07T07:22:16;0.60;;;0.60;;
11924;SDS011;6022;48.768;18.608;2023-09-07T07:24:47;1.37;;;0.90;;
11924;SDS011;6022;48.768;18.608;2023-09-07T07:27:14;0.53;;;0.53;;
11924;SDS011;6022;48.768;18.608;2023-09-07T07:29:41;0.63;;;0.63;;
11924;SDS011;6022;48.768;18.608;2023-09-07T07:32:08;0.83;;;0.83;;
11924;SDS011;6022;48.768;18.608;2023-09-07T07:34:36;1.20;;;1.07;;
11924;SDS011;6022;48.768;18.608;2023-09-07T07:37:03;0.47;;;0.47;;
11924;SDS011;6022;48.768;18.608;2023-09-07T07:39:30;0.67;;;0.67;;
11924;SDS011;6022;48.768;18.608;2023-09-07T07:41:58;0.60;;;0.60;;
11924;SDS011;6022;48.768;18.608;2023-09-07T07:44:49;1.13;;;1.03;;
11924;SDS011;6022;48.768;18.608;2023-09-07T07:47:16;1.17;;;1.07;;
11924;SDS011;6022;48.768;18.608;2023-09-07T07:49:44;0.80;;;0.80;;
11924;SDS011;6022;48.768;18.608;2023-09-07T07:52:14;0.73;;;0.73;;
11924;SDS011;6022;48.768;18.608;2023-09-07T07:54:41;2.00;;;0.67;;
11924;SDS011;6022;48.768;18.608;2023-09-07T07:57:08;0.57;;;0.43;;
11924;SDS011;6022;48.768;18.608;2023-09-07T07:59:38;0.67;;;0.63;;
11924;SDS011;6022;48.768;18.608;2023-09-07T08:02:05;0.83;;;0.83;;
11924;SDS011;6022;48.768;18.608;2023-09-07T08:04:32;0.90;;;0.90;;
11924;SDS011;6022;48.768;18.608;2023-09-07T08:07:01;0.70;;;0.70;;
11924;SDS011;6022;48.768;18.608;2023-09-07T08:09:30;0.60;;;0.60;;
11924;SDS011;6022;48.768;18.608;2023-09-07T08:12:01;0.70;;;0.70;;
11924;SDS011;6022;48.768;18.608;2023-09-07T08:14:29;1.27;;;0.73;;
11924;SDS011;6022;48.768;18.608;2023-09-07T08:16:57;1.30;;;0.80;;
11924;SDS011;6022;48.768;18.608;2023-09-07T08:19:27;0.33;;;0.33;;
11924;SDS011;6022;48.768;18.608;2023-09-07T08:21:59;0.63;;;0.63;;
11924;SDS011;6022;48.768;18.608;2023-09-07T08:24:30;1.37;;;0.57;;
11924;SDS011;6022;48.768;18.608;2023-09-07T08:26:59;0.40;;;0.40;;
11924;SDS011;6022;48.768;18.608;2023-09-07T08:29:29;0.97;;;0.70;;
11924;SDS011;6022;48.768;18.608;2023-09-07T08:31:59;1.33;;;0.70;;
11924;SDS011;6022;48.768;18.608;2023-09-07T08:34:31;1.13;;;1.03;;
11924;SDS011;6022;48.768;18.608;2023-09-07T08:36:58;0.90;;;0.60;;
11924;SDS011;6022;48.768;18.608;2023-09-07T08:39:26;0.87;;;0.83;;
11924;SDS011;6022;48.768;18.608;2023-09-07T08:41:53;1.00;;;0.90;;
11924;SDS011;6022;48.768;18.608;2023-09-07T08:44:28;1.17;;;0.70;;
11924;SDS011;6022;48.768;18.608;2023-09-07T08:46:59;0.87;;;0.70;;
11924;SDS011;6022;48.768;18.608;2023-09-07T08:49:30;1.00;;;0.90;;
11924;SDS011;6022;48.768;18.608;2023-09-07T08:51:59;0.57;;;0.57;;
11924;SDS011;6022;48.768;18.608;2023-09-07T08:54:28;0.30;;;0.30;;
11924;SDS011;6022;48.768;18.608;2023-09-07T08:56:57;0.60;;;0.60;;
11924;SDS011;6022;48.768;18.608;2023-09-07T08:59:24;0.77;;;0.60;;
11924;SDS011;6022;48.768;18.608;2023-09-07T09:01:55;0.50;;;0.50;;
11924;SDS011;6022;48.768;18.608;2023-09-07T09:04:27;1.13;;;1.10;;
11924;SDS011;6022;48.768;18.608;2023-09-07T09:07:02;1.07;;;1.00;;
11924;SDS011;6022;48.768;18.608;2023-09-07T09:09:30;0.53;;;0.40;;
11924;SDS011;6022;48.768;18.608;2023-09-07T09:12:11;0.40;;;0.40;;
11924;SDS011;6022;48.768;18.608;2023-09-07T09:14:45;1.03;;;0.80;;
11924;SDS011;6022;48.768;18.608;2023-09-07T09:17:16;1.53;;;0.60;;
11924;SDS011;6022;48.768;18.608;2023-09-07T09:19:44;0.93;;;0.73;;
11924;SDS011;6022;48.768;18.608;2023-09-07T09:22:11;1.00;;;0.90;;
11924;SDS011;6022;48.768;18.608;2023-09-07T09:24:38;1.07;;;0.83;;
11924;SDS011;6022;48.768;18.608;2023-09-07T09:27:18;0.80;;;0.80;;
11924;SDS011;6022;48.768;18.608;2023-09-07T09:29:49;1.03;;;0.93;;
11924;SDS011;6022;48.768;18.608;2023-09-07T09:32:17;0.53;;;0.53;;
11924;SDS011;6022;48.768;18.608;2023-09-07T09:34:46;0.93;;;0.83;;
11924;SDS011;6022;48.768;18.608;2023-09-07T09:37:14;1.03;;;0.43;;
11924;SDS011;6022;48.768;18.608;2023-09-07T09:39:43;0.30;;;0.30;;
11924;SDS011;6022;48.768;18.608;2023-09-07T09:42:15;0.90;;;0.67;;
11924;SDS011;6022;48.768;18.608;2023-09-07T09:44:44;1.20;;;1.10;;
11924;SDS011;6022;48.768;18.608;2023-09-07T09:47:13;0.67;;;0.60;;
11924;SDS011;6022;48.768;18.608;2023-09-07T09:49:40;0.57;;;0.57;;
11924;SDS011;6022;48.768;18.608;2023-09-07T09:52:15;1.07;;;0.97;;
11924;SDS011;6022;48.768;18.608;2023-09-07T09:54:45;0.53;;;0.53;;
11924;SDS011;6022;48.768;18.608;2023-09-07T09:57:13;0.87;;;0.50;;
11924;SDS011;6022;48.768;18.608;2023-09-07T09:59:41;0.77;;;0.50;;
11924;SDS011;6022;48.768;18.608;2023-09-07T10:02:10;0.60;;;0.60;;
11924;SDS011;6022;48.768;18.608;2023-09-07T10:04:38;0.63;;;0.57;;
11924;SDS011;6022;48.768;18.608;2023-09-07T10:07:05;1.63;;;0.70;;
11924;SDS011;6022;48.768;18.608;2023-09-07T10:09:35;1.23;;;0.83;;
11924;SDS011;6022;48.768;18.608;2023-09-07T10:12:05;0.37;;;0.37;;
11924;SDS011;6022;48.768;18.608;2023-09-07T10:14:44;0.60;;;0.60;;
11924;SDS011;6022;48.768;18.608;2023-09-07T10:17:23;1.50;;;0.90;;
11924;SDS011;6022;48.768;18.608;2023-09-07T10:20:01;0.93;;;0.67;;
11924;SDS011;6022;48.768;18.608;2023-09-07T10:22:34;0.87;;;0.70;;
11924;SDS011;6022;48.768;18.608;2023-09-07T10:25:04;0.37;;;0.37;;
11924;SDS011;6022;48.768;18.608;2023-09-07T10:27:38;1.07;;;0.90;;
11924;SDS011;6022;48.768;18.608;2023-09-07T10:30:09;1.03;;;0.63;;
11924;SDS011;6022;48.768;18.608;2023-09-07T10:32:39;0.43;;;0.43;;
11924;SDS011;6022;48.768;18.608;2023-09-07T10:35:19;0.87;;;0.57;;
11924;SDS011;6022;48.768;18.608;2023-09-07T10:37:51;0.97;;;0.70;;
11924;SDS011;6022;48.768;18.608;2023-09-07T10:40:19;0.60;;;0.60;;
11924;SDS011;6022;48.768;18.608;2023-09-07T10:43:00;0.60;;;0.60;;
11924;SDS011;6022;48.768;18.608;2023-09-07T10:45:29;0.73;;;0.63;;
11924;SDS011;6022;48.768;18.608;2023-09-07T10:47:56;0.57;;;0.57;;
11924;SDS011;6022;48.768;18.608;2023-09-07T10:50:23;1.00;;;0.80;;
11924;SDS011;6022;48.768;18.608;2023-09-07T10:52:50;4.33;;;0.60;;
11924;SDS011;6022;48.768;18.608;2023-09-07T10:55:17;0.60;;;0.60;;
11924;SDS011;6022;48.768;18.608;2023-09-07T10:57:46;0.90;;;0.70;;
11924;SDS011;6022;48.768;18.608;2023-09-07T11:00:17;0.60;;;0.50;;
11924;SDS011;6022;48.768;18.608;2023-09-07T11:02:47;0.40;;;0.40;;
11924;SDS011;6022;48.768;18.608;2023-09-07T11:05:14;1.13;;;0.60;;
11924;SDS011;6022;48.768;18.608;2023-09-07T11:07:41;1.53;;;0.77;;
11924;SDS011;6022;48.768;18.608;2023-09-07T11:10:16;0.77;;;0.73;;
11924;SDS011;6022;48.768;18.608;2023-09-07T11:12:43;0.60;;;0.60;;
11924;SDS011;6022;48.768;18.608;2023-09-07T11:15:12;0.57;;;0.43;;
11924;SDS011;6022;48.768;18.608;2023-09-07T11:17:39;0.67;;;0.57;;
11924;SDS011;6022;48.768;18.608;2023-09-07T11:20:07;1.33;;;0.60;;
11924;SDS011;6022;48.768;18.608;2023-09-07T11:22:35;0.60;;;0.57;;
11924;SDS011;6022;48.768;18.608;2023-09-07T11:25:24;0.60;;;0.53;;
11924;SDS011;6022;48.768;18.608;2023-09-07T11:27:52;0.30;;;0.30;;
11924;SDS011;6022;48.768;18.608;2023-09-07T11:30:24;0.60;;;0.60;;
11924;SDS011;6022;48.768;18.608;2023-09-07T11:33:00;0.30;;;0.20;;
11924;SDS011;6022;48.768;18.608;2023-09-07T11:35:34;0.70;;;0.70;;
11924;SDS011;6022;48.768;18.608;2023-09-07T11:38:02;1.17;;;0.67;;
11924;SDS011;6022;48.768;18.608;2023-09-07T11:40:34;0.60;;;0.60;;
11924;SDS011;6022;48.768;18.608;2023-09-07T11:43:01;0.50;;;0.50;;
11924;SDS011;6022;48.768;18.608;2023-09-07T11:45:29;1.10;;;1.03;;
11924;SDS011;6022;48.768;18.608;2023-09-07T11:47:58;0.60;;;0.60;;
11924;SDS011;6022;48.768;18.608;2023-09-07T11:50:26;0.80;;;0.40;;
11924;SDS011;6022;48.768;18.608;2023-09-07T11:52:56;0.90;;;0.80;;
11924;SDS011;6022;48.768;18.608;2023-09-07T11:55:23;0.97;;;0.70;;
11924;SDS011;6022;48.768;18.608;2023-09-07T11:57:51;1.37;;;0.80;;
11924;SDS011;6022;48.768;18.608;2023-09-07T12:00:18;0.50;;;0.50;;
11924;SDS011;6022;48.768;18.608;2023-09-07T12:02:46;0.83;;;0.83;;
11924;SDS011;6022;48.768;18.608;2023-09-07T12:05:15;0.53;;;0.53;;
11924;SDS011;6022;48.768;18.608;2023-09-07T12:07:44;2.30;;;0.57;;
11924;SDS011;6022;48.768;18.608;2023-09-07T12:10:12;0.53;;;0.53;;
11924;SDS011;6022;48.768;18.608;2023-09-07T12:12:40;0.93;;;0.50;;
11924;SDS011;6022;48.768;18.608;2023-09-07T12:15:08;0.70;;;0.60;;
11924;SDS011;6022;48.768;18.608;2023-09-07T12:17:37;1.13;;;0.93;;
11924;SDS011;6022;48.768;18.608;2023-09-07T12:20:05;0.57;;;0.43;;
11924;SDS011;6022;48.768;18.608;2023-09-07T12:22:37;0.23;;;0.23;;
11924;SDS011;6022;48.768;18.608;2023-09-07T12:25:05;0.40;;;0.40;;
11924;SDS011;6022;48.768;18.608;2023-09-07T12:27:45;0.87;;;0.87;;
11924;SDS011;6022;48.768;18.608;2023-09-07T12:30:17;0.90;;;0.80;;
11924;SDS011;6022;48.768;18.608;2023-09-07T12:32:47;0.93;;;0.70;;
11924;SDS011;6022;48.768;18.608;2023-09-07T12:35:15;0.63;;;0.43;;
11924;SDS011;6022;48.768;18.608;2023-09-07T12:37:42;0.57;;;0.57;;
11924;SDS011;6022;48.768;18.608;2023-09-07T12:40:10;0.57;;;0.50;;
11924;SDS011;6022;48.768;18.608;2023-09-07T12:42:44;0.30;;;0.30;;
11924;SDS011;6022;48.768;18.608;2023-09-07T12:45:13;0.30;;;0.30;;
11924;SDS011;6022;48.768;18.608;2023-09-07T12:47:41;1.67;;;0.80;;
11924;SDS011;6022;48.768;18.608;2023-09-07T12:50:08;0.40;;;0.40;;
11924;SDS011;6022;48.768;18.608;2023-09-07T12:52:37;1.00;;;0.90;;
11924;SDS011;6022;48.768;18.608;2023-09-07T12:55:05;1.40;;;0.50;;
11924;SDS011;6022;48.768;18.608;2023-09-07T12:57:34;1.30;;;0.50;;
11924;SDS011;6022;48.768;18.608;2023-09-07T13:00:04;0.73;;;0.50;;
11924;SDS011;6022;48.768;18.608;2023-09-07T13:02:32;0.73;;;0.60;;
11924;SDS011;6022;48.768;18.608;2023-09-07T13:05:03;0.40;;;0.40;;
11924;SDS011;6022;48.768;18.608;2023-09-07T13:07:33;0.40;;;0.40;;
11924;SDS011;6022;48.768;18.608;2023-09-07T13:10:01;0.33;;;0.33;;
11924;SDS011;6022;48.768;18.608;2023-09-07T13:12:31;0.30;;;0.30;;
11924;SDS011;6022;48.768;18.608;2023-09-07T13:14:59;0.30;;;0.27;;
11924;SDS011;6022;48.768;18.608;2023-09-07T13:17:26;0.50;;;0.50;;
11924;SDS011;6022;48.768;18.608;2023-09-07T13:19:54;0.50;;;0.50;;
11924;SDS011;6022;48.768;18.608;2023-09-07T13:22:22;0.90;;;0.90;;
11924;SDS011;6022;48.768;18.608;2023-09-07T13:24:49;1.27;;;1.00;;
11924;SDS011;6022;48.768;18.608;2023-09-07T13:27:16;0.40;;;0.40;;
11924;SDS011;6022;48.768;18.608;2023-09-07T13:29:44;0.77;;;0.60;;
11924;SDS011;6022;48.768;18.608;2023-09-07T13:32:11;1.00;;;0.60;;
11924;SDS011;6022;48.768;18.608;2023-09-07T13:34:38;0.60;;;0.60;;
11924;SDS011;6022;48.768;18.608;2023-09-07T13:37:06;0.57;;;0.57;;
11924;SDS011;6022;48.768;18.608;2023-09-07T13:39:33;0.73;;;0.50;;
11924;SDS011;6022;48.768;18.608;2023-09-07T13:42:00;0.27;;;0.27;;
11924;SDS011;6022;48.768;18.608;2023-09-07T13:44:27;0.20;;;0.20;;
11924;SDS011;6022;48.768;18.608;2023-09-07T13:46:54;0.83;;;0.63;;
11924;SDS011;6022;48.768;18.608;2023-09-07T13:49:22;0.67;;;0.67;;
11924;SDS011;6022;48.768;18.608;2023-09-07T13:51:49;0.60;;;0.60;;
11924;SDS011;6022;48.768;18.608;2023-09-07T13:54:16;0.43;;;0.43;;
11924;SDS011;6022;48.768;18.608;2023-09-07T13:56:44;0.57;;;0.50;;
11924;SDS011;6022;48.768;18.608;2023-09-07T13:59:13;0.67;;;0.60;;
11924;SDS011;6022;48.768;18.608;2023-09-07T14:01:40;0.33;;;0.30;;
11924;SDS011;6022;48.768;18.608;2023-09-07T14:04:07;0.77;;;0.77;;
11924;SDS011;6022;48.768;18.608;2023-09-07T14:06:34;0.47;;;0.40;;
11924;SDS011;6022;48.768;18.608;2023-09-07T14:09:01;0.40;;;0.40;;
11924;SDS011;6022;48.768;18.608;2023-09-07T14:11:28;0.77;;;0.30;;
11924;SDS011;6022;48.768;18.608;2023-09-07T14:13:55;0.67;;;0.67;;
11924;SDS011;6022;48.768;18.608;2023-09-07T14:16:22;1.13;;;0.57;;
11924;SDS011;6022;48.768;18.608;2023-09-07T14:18:50;0.20;;;0.20;;
11924;SDS011;6022;48.768;18.608;2023-09-07T14:21:17;0.30;;;0.30;;
11924;SDS011;6022;48.768;18.608;2023-09-07T14:23:44;0.30;;;0.30;;
11924;SDS011;6022;48.768;18.608;2023-09-07T14:26:12;0.40;;;0.40;;
11924;SDS011;6022;48.768;18.608;2023-09-07T14:28:40;0.30;;;0.30;;
11924;SDS011;6022;48.768;18.608;2023-09-07T14:31:07;0.77;;;0.77;;
11924;SDS011;6022;48.768;18.608;2023-09-07T14:33:37;1.03;;;1.03;;
11924;SDS011;6022;48.768;18.608;2023-09-07T14:36:06;0.57;;;0.57;;
11924;SDS011;6022;48.768;18.608;2023-09-07T14:38:36;0.80;;;0.63;;
11924;SDS011;6022;48.768;18.608;2023-09-07T14:41:07;0.27;;;0.27;;
11924;SDS011;6022;48.768;18.608;2023-09-07T14:43:39;0.57;;;0.40;;
11924;SDS011;6022;48.768;18.608;2023-09-07T14:46:06;0.60;;;0.60;;
11924;SDS011;6022;48.768;18.608;2023-09-07T14:48:34;0.30;;;0.30;;
11924;SDS011;6022;48.768;18.608;2023-09-07T14:51:01;1.07;;;0.97;;
11924;SDS011;6022;48.768;18.608;2023-09-07T14:53:30;0.50;;;0.50;;
11924;SDS011;6022;48.768;18.608;2023-09-07T14:55:58;0.40;;;0.33;;